Time;durP1;ratioP1;P1;durP2;ratioP2;P2;SDS_P1;SDS_P2;PMS_P1;PMS_P2;Temp;Humidity;BMP_temperature;BMP_pressure;BME280_temperature;BME280_humidity;BME280_pressure;Samples;Min_cycle;Max_cycle;Signal;HPM_P1;HPM_P2
2024/04/09 00:01:13;;;;;;;7.72;1.75;;;;;;;18.09;100.00;99341.63;5434220;26;20006;-72
2024/04/09 00:03:44;;;;;;;12.57;2.70;;;;;;;18.22;100.00;99351.25;5426991;26;20787;-71
2024/04/09 00:06:19;;;;;;;9.65;3.05;;;;;;;18.16;100.00;99346.13;5442201;26;20007;-72
2024/04/09 00:08:53;;;;;;;12.88;2.22;;;;;;;18.05;100.00;99347.06;5441640;26;20007;-72
2024/04/09 00:11:21;;;;;;;5.30;1.58;;;;;;;17.92;100.00;99343.03;5443316;26;20011;-72
2024/04/09 00:13:57;;;;;;;5.13;1.85;;;;;;;17.85;100.00;99341.34;5439399;26;20744;-71
2024/04/09 00:16:25;;;;;;;7.55;1.90;;;;;;;17.75;100.00;99340.88;5436568;26;20082;-72
2024/04/09 00:19:02;;;;;;;8.20;1.45;;;;;;;17.62;100.00;99315.13;5436889;26;20079;-72
2024/04/09 00:21:30;;;;;;;10.13;2.28;;;;;;;17.70;100.00;99303.53;5435012;26;20012;-72
2024/04/09 00:24:01;;;;;;;13.05;2.53;;;;;;;18.07;100.00;99299.44;5444590;26;20679;-72
2024/04/09 00:26:31;;;;;;;6.68;1.88;;;;;;;17.93;100.00;99308.03;5438251;26;20007;-72
2024/04/09 00:29:02;;;;;;;9.40;1.98;;;;;;;17.89;100.00;99321.16;5441677;26;20006;-72
2024/04/09 00:31:31;;;;;;;11.98;1.92;;;;;;;17.82;100.00;99309.66;5442505;26;20450;-72
2024/04/09 00:34:05;;;;;;;7.32;1.75;;;;;;;17.76;100.00;99303.78;5433165;26;20539;-72
2024/04/09 00:36:33;;;;;;;9.82;2.00;;;;;;;17.76;100.00;99303.78;5420086;26;20000;-72
2024/04/09 00:39:04;;;;;;;13.25;2.95;;;;;;;17.99;100.00;99308.25;5431142;26;20470;-72
2024/04/09 00:41:37;;;;;;;11.50;2.00;;;;;;;17.90;100.00;99295.25;5443133;26;20015;-72
2024/04/09 00:44:07;;;;;;;7.93;1.55;;;;;;;17.78;100.00;99292.66;5426226;26;20043;-72
2024/04/09 00:46:36;;;;;;;8.68;2.42;;;;;;;17.74;100.00;99294.56;5437731;26;20023;-72
2024/04/09 00:49:09;;;;;;;9.32;2.22;;;;;;;17.66;100.00;99299.84;5432082;26;20003;-72
2024/04/09 00:51:39;;;;;;;14.77;2.88;;;;;;;17.51;100.00;99296.44;5437430;26;20072;-72
2024/04/09 00:54:10;;;;;;;6.18;1.73;;;;;;;17.49;100.00;99307.56;5430017;26;20038;-72
2024/04/09 00:56:39;;;;;;;13.68;2.35;;;;;;;17.39;100.00;99304.34;5438906;26;20003;-72
2024/04/09 00:59:12;;;;;;;6.15;1.63;;;;;;;17.34;100.00;99316.75;5444832;26;19999;-72
2024/04/09 01:01:40;;;;;;;20.15;3.25;;;;;;;17.37;100.00;99321.78;5433718;26;20038;-71
2024/04/09 01:04:13;;;;;;;8.95;1.17;;;;;;;17.50;100.00;99328.63;5440048;26;20010;-72
2024/04/09 01:06:42;;;;;;;8.10;2.13;;;;;;;17.61;100.00;99324.91;5443419;26;20018;-72
2024/04/09 01:09:13;;;;;;;8.17;2.00;;;;;;;17.54;100.00;99334.44;5458273;26;20002;-72
2024/04/09 01:11:41;;;;;;;12.15;2.63;;;;;;;17.32;100.00;99341.88;5456078;26;20021;-72
2024/04/09 01:14:12;;;;;;;10.15;3.05;;;;;;;17.23;100.00;99357.59;5412053;26;20782;-72
2024/04/09 01:16:39;;;;;;;7.88;1.92;;;;;;;17.11;100.00;99363.41;5410023;26;20014;-72
2024/04/09 01:19:12;;;;;;;6.47;1.65;;;;;;;16.98;100.00;99367.00;5459785;26;20078;-71
2024/04/09 01:21:41;;;;;;;6.28;1.95;;;;;;;16.88;100.00;99372.13;5454359;26;20015;-71
2024/04/09 01:24:15;;;;;;;10.38;1.75;;;;;;;16.79;100.00;99367.50;5448713;26;19998;-71
2024/04/09 01:26:43;;;;;;;10.43;2.63;;;;;;;17.02;100.00;99370.00;5449723;26;20000;-71
2024/04/09 01:29:14;;;;;;;13.65;3.75;;;;;;;17.10;100.00;99366.84;5447434;26;20502;-71
2024/04/09 01:31:42;;;;;;;9.15;1.88;;;;;;;17.07;100.00;99366.00;5448052;26;20017;-72
2024/04/09 01:34:12;;;;;;;7.57;1.92;;;;;;;17.09;100.00;99366.13;5453246;26;20007;-71
2024/04/09 01:36:40;;;;;;;8.07;2.40;;;;;;;17.09;100.00;99366.13;5451140;26;20017;-71
2024/04/09 01:39:10;;;;;;;7.22;2.53;;;;;;;17.07;100.00;99359.69;5441882;26;20098;-71
2024/04/09 01:41:41;;;;;;;11.30;1.75;;;;;;;17.10;100.00;99355.63;5438216;26;20521;-70
2024/04/09 01:44:11;;;;;;;8.50;1.65;;;;;;;17.01;100.00;99356.59;5439753;26;20007;-71
2024/04/09 01:46:39;;;;;;;8.27;2.17;;;;;;;16.90;100.00;99375.75;5444235;26;20003;-72
2024/04/09 01:49:10;;;;;;;7.43;1.80;;;;;;;16.76;100.00;99373.00;5442729;26;20003;-71
2024/04/09 01:51:38;;;;;;;8.85;1.90;;;;;;;16.65;100.00;99376.69;5445885;26;20007;-71
2024/04/09 01:54:08;;;;;;;4.50;1.73;;;;;;;16.58;100.00;99379.81;5442086;26;19999;-71
2024/04/09 01:56:36;;;;;;;10.10;2.30;;;;;;;16.48;100.00;99377.97;5444815;26;20003;-71
2024/04/09 01:59:09;;;;;;;10.65;1.83;;;;;;;16.42;100.00;99374.91;5441772;26;20020;-71
2024/04/09 02:01:36;;;;;;;11.00;1.77;;;;;;;16.38;100.00;99383.09;5450900;26;20003;-71
2024/04/09 02:04:07;;;;;;;13.05;1.50;;;;;;;16.42;100.00;99383.31;5450204;26;20264;-71
2024/04/09 02:06:36;;;;;;;10.27;1.73;;;;;;;16.36;100.00;99387.88;5444857;26;20056;-71
2024/04/09 02:09:06;;;;;;;13.05;2.20;;;;;;;16.37;100.00;99367.66;5441913;26;20089;-71
2024/04/09 02:11:34;;;;;;;6.18;1.98;;;;;;;16.63;100.00;99373.78;5440661;26;20046;-71
2024/04/09 02:14:04;;;;;;;11.85;3.00;;;;;;;16.68;100.00;99377.50;5444508;26;20613;-71
2024/04/09 02:16:34;;;;;;;16.52;4.72;;;;;;;16.74;100.00;99372.16;5438669;26;20007;-71
2024/04/09 02:19:06;;;;;;;15.30;1.95;;;;;;;16.59;100.00;99367.97;5441720;26;20043;-72
2024/04/09 02:21:36;;;;;;;11.07;2.63;;;;;;;16.59;100.00;99375.66;5434982;26;20007;-72
2024/04/09 02:24:07;;;;;;;7.28;1.88;;;;;;;16.58;100.00;99374.94;5441493;26;20019;-73
2024/04/09 02:26:37;;;;;;;8.52;2.25;;;;;;;16.57;100.00;99390.31;5441394;26;20007;-72
2024/04/09 02:29:08;;;;;;;10.25;1.73;;;;;;;16.52;100.00;99391.47;5449900;26;20003;-72
2024/04/09 02:31:40;;;;;;;11.95;2.20;;;;;;;16.44;100.00;99386.19;5443113;26;20039;-72
2024/04/09 02:34:10;;;;;;;12.63;2.28;;;;;;;16.40;100.00;99397.19;5464960;26;20023;-73
2024/04/09 02:36:38;;;;;;;8.75;1.83;;;;;;;16.39;100.00;99398.53;5433850;26;20007;-73
2024/04/09 02:39:08;;;;;;;5.28;1.75;;;;;;;16.31;100.00;99404.47;5410431;26;20342;-73
2024/04/09 02:41:39;;;;;;;9.60;1.60;;;;;;;16.15;100.00;99420.47;5436259;26;20818;-72
2024/04/09 02:44:09;;;;;;;21.65;3.10;;;;;;;16.13;100.00;99428.75;5440636;26;20006;-73
2024/04/09 02:46:40;;;;;;;11.95;1.70;;;;;;;16.07;100.00;99422.84;5437870;26;20007;-72
2024/04/09 02:49:10;;;;;;;4.97;1.23;;;;;;;15.91;100.00;99431.88;5436265;26;20014;-73
2024/04/09 02:51:39;;;;;;;9.90;1.80;;;;;;;15.75;100.00;99433.84;5441584;26;20003;-71
2024/04/09 02:54:10;;;;;;;6.00;1.83;;;;;;;15.67;100.00;99428.53;5437159;26;20382;-71
2024/04/09 02:56:38;;;;;;;5.97;1.85;;;;;;;15.58;100.00;99428.72;5438127;26;20009;-71
2024/04/09 02:59:08;;;;;;;12.45;2.08;;;;;;;15.51;100.00;99424.19;5437187;26;19999;-71
2024/04/09 03:01:35;;;;;;;19.65;2.75;;;;;;;15.55;100.00;99430.69;5438738;26;20018;-71
2024/04/09 03:04:08;;;;;;;9.27;2.13;;;;;;;15.78;100.00;99432.59;5424887;26;20518;-71
2024/04/09 03:06:37;;;;;;;15.88;2.40;;;;;;;15.82;100.00;99432.81;5434308;26;20740;-72
2024/04/09 03:09:08;;;;;;;15.90;3.20;;;;;;;15.79;100.00;99436.84;5393443;26;20093;-72
2024/04/09 03:11:38;;;;;;;12.73;2.33;;;;;;;15.67;100.00;99427.81;5430433;26;20003;-72
2024/04/09 03:14:11;;;;;;;5.95;1.20;;;;;;;15.56;100.00;99448.19;5436946;26;20104;-72
2024/04/09 03:16:40;;;;;;;9.40;2.88;;;;;;;15.47;100.00;99447.75;5433107;26;20003;-72
2024/04/09 03:19:13;;;;;;;17.52;2.50;;;;;;;15.44;100.00;99462.25;5431811;26;20155;-72
2024/04/09 03:21:41;;;;;;;9.80;2.85;;;;;;;15.34;100.00;99459.66;5432950;26;20395;-72
2024/04/09 03:24:11;;;;;;;11.98;3.13;;;;;;;15.16;100.00;99464.97;5442809;26;20014;-71
2024/04/09 03:26:39;;;;;;;10.23;2.38;;;;;;;14.99;100.00;99457.78;5434769;26;20460;-71
2024/04/09 03:29:09;;;;;;;7.95;1.48;;;;;;;14.95;100.00;99476.38;5435848;26;20060;-71
2024/04/09 03:31:37;;;;;;;8.73;1.75;;;;;;;14.93;100.00;99474.19;5439750;26;20339;-72
2024/04/09 03:34:08;;;;;;;6.50;1.77;;;;;;;14.93;100.00;99470.66;5432896;26;20018;-72
2024/04/09 03:36:38;;;;;;;21.10;2.95;;;;;;;14.98;100.00;99475.84;5442925;26;20017;-71
2024/04/09 03:39:09;;;;;;;12.43;2.45;;;;;;;14.96;100.00;99475.78;5438438;26;20002;-72
2024/04/09 03:41:39;;;;;;;9.38;2.55;;;;;;;14.94;100.00;99483.31;5440260;26;20003;-71
2024/04/09 03:44:10;;;;;;;12.77;2.65;;;;;;;14.96;100.00;99484.16;5440614;26;20006;-72
2024/04/09 03:46:38;;;;;;;7.60;3.00;;;;;;;14.97;100.00;99496.03;5439880;26;20007;-72
2024/04/09 03:49:09;;;;;;;12.25;2.13;;;;;;;15.02;100.00;99498.44;5439289;26;20008;-73
2024/04/09 03:51:40;;;;;;;7.22;1.92;;;;;;;15.02;100.00;99501.22;5444523;26;20014;-72
2024/04/09 03:54:13;;;;;;;6.18;1.98;;;;;;;15.02;100.00;99503.31;5458873;26;20006;-71
2024/04/09 03:56:41;;;;;;;5.65;1.95;;;;;;;15.03;100.00;99510.34;5457056;26;20175;-71
2024/04/09 03:59:11;;;;;;;9.68;2.47;;;;;;;15.11;100.00;99512.84;5439612;26;20003;-72
2024/04/09 04:01:39;;;;;;;8.32;2.47;;;;;;;15.31;100.00;99513.97;5437108;26;20601;-73
2024/04/09 04:04:09;;;;;;;9.25;2.38;;;;;;;15.42;100.00;99512.47;5441461;26;20042;-73
2024/04/09 04:06:40;;;;;;;13.68;2.35;;;;;;;15.46;100.00;99518.28;5443451;26;20610;-72
2024/04/09 04:09:11;;;;;;;6.47;1.25;;;;;;;15.71;100.00;99516.81;5441884;26;20494;-72
2024/04/09 04:11:39;;;;;;;12.57;1.88;;;;;;;15.91;100.00;99537.44;5432528;26;20060;-72
2024/04/09 04:14:09;;;;;;;4.80;1.40;;;;;;;16.06;100.00;99536.13;5443810;26;20092;-72
2024/04/09 04:16:37;;;;;;;12.85;2.42;;;;;;;16.12;100.00;99544.81;5442846;26;20014;-72
2024/04/09 04:19:08;;;;;;;6.93;1.63;;;;;;;16.16;100.00;99547.84;5445143;26;20003;-72
2024/04/09 04:21:36;;;;;;;8.05;1.67;;;;;;;16.15;100.00;99552.00;5432793;26;20077;-72
2024/04/09 04:24:09;;;;;;;11.82;2.30;;;;;;;16.14;100.00;99550.53;5441898;26;20047;-73
2024/04/09 04:26:37;;;;;;;6.72;1.40;;;;;;;16.18;100.00;99556.34;5438411;26;20049;-73
2024/04/09 04:29:09;;;;;;;7.00;1.48;;;;;;;16.25;100.00;99563.00;5444010;26;20014;-73
2024/04/09 04:31:38;;;;;;;7.10;2.20;;;;;;;16.23;100.00;99560.81;5400346;26;20015;-73
2024/04/09 04:34:09;;;;;;;5.85;1.27;;;;;;;16.18;100.00;99561.22;5443086;26;20139;-73
2024/04/09 04:36:37;;;;;;;5.80;1.67;;;;;;;16.13;100.00;99565.88;5438045;26;20048;-72
2024/04/09 04:39:11;;;;;;;7.13;1.50;;;;;;;16.06;100.00;99564.09;5443211;26;20007;-71
2024/04/09 04:41:39;;;;;;;4.70;0.80;;;;;;;16.11;100.00;99569.28;5440275;26;20196;-72
2024/04/09 04:44:10;;;;;;;6.57;1.08;;;;;;;16.04;100.00;99567.50;5440771;26;20020;-73
2024/04/09 04:46:38;;;;;;;6.22;1.50;;;;;;;16.06;100.00;99575.28;5440184;26;20017;-72
2024/04/09 04:49:09;;;;;;;3.15;0.88;;;;;;;16.02;100.00;99575.06;5459649;26;20017;-72
2024/04/09 04:51:38;;;;;;;5.03;1.85;;;;;;;16.01;100.00;99573.63;5454027;26;20237;-72
2024/04/09 04:54:11;;;;;;;7.90;0.77;;;;;;;16.01;100.00;99585.53;5487108;26;20011;-72
2024/04/09 04:56:42;;;;;;;4.22;1.05;;;;;;;15.97;100.00;99604.91;5461128;26;20252;-72
2024/04/09 04:59:12;;;;;;;4.18;1.23;;;;;;;16.00;100.00;99609.28;5465049;26;20003;-72
2024/04/09 05:01:40;;;;;;;5.90;1.40;;;;;;;15.96;100.00;99625.84;5453680;26;20031;-72
2024/04/09 05:04:10;;;;;;;4.80;1.33;;;;;;;15.94;100.00;99625.72;5438565;26;20006;-72
2024/04/09 05:06:39;;;;;;;7.57;1.45;;;;;;;15.92;100.00;99622.81;5435488;26;20700;-73
2024/04/09 05:09:12;;;;;;;8.65;3.03;;;;;;;15.93;100.00;99637.56;5413164;26;20007;-72
2024/04/09 05:11:40;;;;;;;3.92;1.45;;;;;;;15.98;100.00;99639.22;5443844;26;20015;-72
2024/04/09 05:14:10;;;;;;;6.35;1.02;;;;;;;16.08;100.00;99651.69;5440928;26;20072;-72
2024/04/09 05:16:38;;;;;;;4.05;0.70;;;;;;;16.14;100.00;99654.06;5435952;26;20010;-72
2024/04/09 05:19:08;;;;;;;7.50;1.88;;;;;;;16.22;100.00;99656.56;5418886;26;20751;-72
2024/04/09 05:21:36;;;;;;;3.78;0.95;;;;;;;16.27;100.00;99658.97;5436335;26;20003;-73
2024/04/09 05:24:12;;;;;;;7.03;1.67;;;;;;;16.21;100.00;99650.25;5434937;26;20007;-72
2024/04/09 05:26:40;;;;;;;5.30;1.50;;;;;;;16.38;100.00;99667.91;5432955;26;20273;-72
2024/04/09 05:29:11;;;;;;;5.30;0.70;;;;;;;16.47;100.00;99678.19;5432999;26;20011;-72
2024/04/09 05:31:38;;;;;;;6.60;1.23;;;;;;;16.50;100.00;99691.69;5435543;26;20003;-72
2024/04/09 05:34:12;;;;;;;11.98;1.40;;;;;;;16.61;100.00;99686.59;5442139;26;20046;-72
2024/04/09 05:36:40;;;;;;;4.35;0.77;;;;;;;16.67;100.00;99700.94;5433619;26;20007;-72
2024/04/09 05:39:16;;;;;;;11.52;1.15;;;;;;;16.76;100.00;99703.53;5443703;26;20015;-72
2024/04/09 05:41:44;;;;;;;5.43;1.20;;;;;;;16.95;100.00;99708.00;5444815;26;20104;-72
2024/04/09 05:44:14;;;;;;;4.35;0.77;;;;;;;17.02;100.00;99714.66;5456155;26;20448;-72
2024/04/09 05:46:42;;;;;;;2.13;1.00;;;;;;;17.20;100.00;99712.06;5455876;26;20003;-72
2024/04/09 05:49:12;;;;;;;4.32;0.57;;;;;;;17.31;100.00;99713.28;5431611;26;20441;-72
2024/04/09 05:51:40;;;;;;;3.53;1.10;;;;;;;17.29;100.00;99716.00;5440596;26;20408;-71
2024/04/09 05:54:10;;;;;;;2.35;0.90;;;;;;;17.42;100.00;99701.22;5441144;26;19999;-72
2024/04/09 05:56:41;;;;;;;2.47;0.77;;;;;;;17.37;100.00;99714.31;5440103;26;20347;-72
2024/04/09 05:59:11;;;;;;;3.35;1.42;;;;;;;17.50;100.00;99715.63;5436223;26;20007;-71
2024/04/09 06:01:38;;;;;;;10.85;0.80;;;;;;;17.48;100.00;99729.56;5441267;26;20022;-71
2024/04/09 06:04:09;;;;;;;3.88;0.65;;;;;;;17.50;100.00;99743.69;5440326;26;20011;-73
2024/04/09 06:06:41;;;;;;;3.10;0.80;;;;;;;17.31;100.00;99744.13;5439566;26;19999;-72
2024/04/09 06:09:12;;;;;;;5.10;1.00;;;;;;;17.31;100.00;99756.06;5440237;26;19999;-72
2024/04/09 06:11:42;;;;;;;3.08;0.47;;;;;;;17.15;100.00;99764.38;5437793;26;20084;-72
2024/04/09 06:14:13;;;;;;;4.05;0.50;;;;;;;17.20;100.00;99759.72;5443572;26;20015;-72
2024/04/09 06:16:40;;;;;;;2.22;0.82;;;;;;;17.00;100.00;99776.22;5427968;26;20039;-73
2024/04/09 06:19:11;;;;;;;3.20;0.55;;;;;;;17.02;100.00;99784.00;5442461;26;20003;-72
2024/04/09 06:21:42;;;;;;;3.25;0.60;;;;;;;16.83;100.00;99788.63;5429662;26;20552;-72
2024/04/09 06:24:13;;;;;;;4.45;0.73;;;;;;;16.85;100.00;99788.03;5441028;26;20022;-73
2024/04/09 06:26:43;;;;;;;7.53;1.00;;;;;;;16.93;100.00;99794.78;5440278;26;20007;-73
2024/04/09 06:29:13;;;;;;;3.58;0.30;;;;;;;16.96;100.00;99799.16;5440538;26;20003;-70
2024/04/09 06:31:41;;;;;;;7.97;0.68;;;;;;;17.01;100.00;99808.47;5426887;26;20007;-73
2024/04/09 06:34:11;;;;;;;5.38;0.95;;;;;;;17.06;100.00;99804.56;5434436;26;20013;-73
2024/04/09 06:36:39;;;;;;;6.32;0.47;;;;;;;17.18;100.00;99796.78;5434279;26;20019;-72
2024/04/09 06:39:13;;;;;;;2.10;0.40;;;;;;;17.32;100.00;99799.56;5438505;26;20865;-71
2024/04/09 06:41:45;;;;;;;1.23;0.47;;;;;;;17.44;100.00;99810.69;5422210;26;20008;-71
2024/04/09 06:44:15;;;;;;;8.38;0.93;;;;;;;17.39;100.00;99814.63;5426790;26;20416;-71
2024/04/09 06:46:43;;;;;;;1.45;0.32;;;;;;;17.48;100.00;99822.13;5431291;26;20022;-72
2024/04/09 06:49:14;;;;;;;1.58;0.30;;;;;;;17.43;100.00;99826.03;5425206;26;20008;-72
2024/04/09 06:51:42;;;;;;;1.80;0.30;;;;;;;17.61;100.00;99835.41;5438112;26;20005;-71
2024/04/09 06:54:12;;;;;;;1.13;0.50;;;;;;;17.61;100.00;99845.91;5435578;26;19999;-72
2024/04/09 06:56:44;;;;;;;4.13;0.47;;;;;;;17.42;100.00;99849.84;5432280;26;20047;-72
2024/04/09 06:59:16;;;;;;;0.85;0.30;;;;;;;17.28;100.00;99855.44;5424238;26;19995;-72
2024/04/09 07:01:44;;;;;;;1.52;0.32;;;;;;;17.10;100.00;99863.63;5442137;26;20014;-72
2024/04/09 07:04:15;;;;;;;1.55;0.35;;;;;;;17.00;100.00;99856.75;5434832;26;20003;-72
2024/04/09 07:06:43;;;;;;;4.18;0.30;;;;;;;16.81;100.00;99869.78;5435807;26;20031;-72
2024/04/09 07:09:16;;;;;;;0.82;0.43;;;;;;;16.69;100.00;99875.44;5439585;26;20007;-72
2024/04/09 07:11:50;;;;;;;1.90;0.52;;;;;;;16.53;100.00;99883.66;5436753;26;20004;-72
2024/04/09 07:14:18;;;;;;;0.38;0.25;;;;;;;16.37;100.00;99888.34;5445335;26;20077;-72
2024/04/09 07:16:49;;;;;;;1.42;0.80;;;;;;;16.23;100.00;99891.06;5438460;26;20017;-72
2024/04/09 07:19:17;;;;;;;1.55;0.28;;;;;;;16.31;100.00;99896.41;5435353;26;20004;-72
2024/04/09 07:21:47;;;;;;;0.65;0.43;;;;;;;16.31;100.00;99908.31;5436500;26;20055;-72
2024/04/09 07:24:15;;;;;;;0.65;0.20;;;;;;;16.41;100.00;99910.97;5430287;26;20003;-72
2024/04/09 07:26:46;;;;;;;0.37;0.17;;;;;;;16.47;100.00;99919.72;5420902;26;20004;-72
2024/04/09 07:29:18;;;;;;;1.20;0.43;;;;;;;16.65;100.00;99919.28;5443605;26;20020;-72
2024/04/09 07:31:48;;;;;;;0.70;0.20;;;;;;;16.60;100.00;99937.22;5438217;26;20031;-72
2024/04/09 07:34:16;;;;;;;0.80;0.30;;;;;;;16.33;100.00;99944.84;5438149;26;20075;-72
2024/04/09 07:36:46;;;;;;;0.95;0.20;;;;;;;16.32;100.00;99946.19;5436750;26;20458;-71
2024/04/09 07:39:15;;;;;;;2.45;0.15;;;;;;;16.10;100.00;99948.41;5444760;26;20229;-71
2024/04/09 07:41:45;;;;;;;0.08;0.05;;;;;;;16.06;100.00;99955.84;5435847;26;20482;-71
2024/04/09 07:44:13;;;;;;;0.45;0.05;;;;;;;15.99;100.00;99959.63;5443177;26;20003;-71
2024/04/09 07:46:48;;;;;;;2.90;0.30;;;;;;;15.82;100.00;99972.63;5434272;26;20011;-71
2024/04/09 07:49:16;;;;;;;0.80;0.10;;;;;;;15.67;100.00;99975.91;5455583;26;20677;-71
2024/04/09 07:51:47;;;;;;;2.65;0.10;;;;;;;15.75;100.00;99979.22;5460845;26;20045;-71
2024/04/09 07:54:15;;;;;;;8.38;0.30;;;;;;;15.74;100.00;99994.53;5456088;26;20018;-71
2024/04/09 07:56:45;;;;;;;5.20;0.20;;;;;;;15.62;100.00;100018.94;5441290;26;20018;-73
2024/04/09 07:59:13;;;;;;;0.35;0.10;;;;;;;15.56;100.00;100021.38;5440271;26;20010;-72
2024/04/09 08:01:47;;;;;;;0.20;0.10;;;;;;;15.44;100.00;100032.53;5445215;26;20022;-72
2024/04/09 08:04:14;;;;;;;0.10;0.00;;;;;;;15.38;100.00;100035.69;5443244;26;20093;-72
2024/04/09 08:06:45;;;;;;;0.65;0.10;;;;;;;15.16;100.00;100037.06;5442821;26;20003;-72
2024/04/09 08:09:13;;;;;;;0.40;0.10;;;;;;;14.99;100.00;100050.00;5440297;26;20017;-73
2024/04/09 08:11:44;;;;;;;0.17;0.05;;;;;;;15.07;100.00;100054.63;5445071;26;20467;-73
2024/04/09 08:14:12;;;;;;;0.00;0.00;;;;;;;15.02;100.00;100082.31;5438558;26;20003;-73
2024/04/09 08:16:42;;;;;;;1.60;0.60;;;;;;;14.94;100.00;100073.41;5432542;26;20648;-73
2024/04/09 08:19:13;;;;;;;0.20;0.10;;;;;;;14.79;100.00;100088.50;5441342;26;20013;-72
2024/04/09 08:21:43;;;;;;;0.00;0.00;;;;;;;14.70;100.00;100094.16;5433432;26;20077;-72
2024/04/09 08:24:11;;;;;;;0.60;0.03;;;;;;;14.49;100.00;100094.81;5443572;26;20003;-73
2024/04/09 08:26:42;;;;;;;5.07;0.20;;;;;;;14.51;100.00;100126.41;5442241;26;19999;-73
2024/04/09 08:29:14;;;;;;;1.65;0.00;;;;;;;14.40;100.00;100129.84;5448234;26;20895;-74
2024/04/09 08:31:46;;;;;;;0.63;0.00;;;;;;;14.27;100.00;100125.50;5438917;26;20003;-73
2024/04/09 08:34:16;;;;;;;0.95;0.22;;;;;;;14.20;100.00;100137.56;5440618;26;20538;-73
2024/04/09 08:36:47;;;;;;;0.03;0.00;;;;;;;14.14;100.00;100143.47;5439034;26;20015;-73
2024/04/09 08:39:15;;;;;;;0.20;0.10;;;;;;;14.04;100.00;100155.94;5436030;26;20006;-73
2024/04/09 08:41:47;;;;;;;0.40;0.17;;;;;;;13.94;100.00;100178.28;5434690;26;20142;-71
2024/04/09 08:44:15;;;;;;;3.03;0.32;;;;;;;13.90;100.00;100180.81;5436050;26;20476;-72
2024/04/09 08:46:46;;;;;;;0.08;0.08;;;;;;;13.79;100.00;100186.97;5441403;26;20035;-74
2024/04/09 08:49:17;;;;;;;0.28;0.10;;;;;;;13.63;100.00;100201.22;5445021;26;20007;-72
2024/04/09 08:51:49;;;;;;;0.10;0.00;;;;;;;13.68;100.00;100222.50;5440137;26;20007;-72
2024/04/09 08:54:18;;;;;;;0.15;0.05;;;;;;;13.60;100.00;100227.50;5475933;26;19999;-73
2024/04/09 08:56:49;;;;;;;1.35;0.00;;;;;;;13.53;100.00;100225.56;5448489;26;20000;-71
2024/04/09 08:59:17;;;;;;;0.47;0.10;;;;;;;13.53;100.00;100231.88;5439866;26;20056;-73
2024/04/09 09:01:47;;;;;;;4.43;0.10;;;;;;;13.53;100.00;100233.94;5442024;26;20011;-73
2024/04/09 09:04:18;;;;;;;0.10;0.00;;;;;;;13.51;100.00;100245.66;5444428;26;20015;-73
2024/04/09 09:06:50;;;;;;;0.10;0.10;;;;;;;13.50;100.00;100251.81;5442332;26;20002;-73
2024/04/09 09:09:21;;;;;;;0.30;0.10;;;;;;;13.52;100.00;100252.69;5445309;26;20007;-72
2024/04/09 09:11:53;;;;;;;0.20;0.10;;;;;;;13.44;100.00;100254.91;5439698;26;20343;-72
2024/04/09 09:14:22;;;;;;;0.65;0.20;;;;;;;13.43;100.00;100280.56;5441248;26;20082;-72
2024/04/09 09:16:52;;;;;;;1.75;0.68;;;;;;;13.32;100.00;100290.94;5428821;26;20083;-72
2024/04/09 09:19:23;;;;;;;0.85;0.30;;;;;;;13.26;100.00;100309.25;5437578;26;20359;-72
2024/04/09 09:21:54;;;;;;;0.03;0.03;;;;;;;13.29;100.00;100316.47;5439195;26;20522;-71
2024/04/09 09:24:21;;;;;;;0.88;0.20;;;;;;;13.23;100.00;100319.50;5442173;26;20051;-71
2024/04/09 09:27:00;;;;;;;2.72;0.55;;;;;;;13.20;100.00;100329.00;5440035;26;20015;-71
2024/04/09 09:29:28;;;;;;;2.33;0.25;;;;;;;13.17;100.00;100344.09;5435921;26;20007;-72
2024/04/09 09:31:59;;;;;;;1.55;0.45;;;;;;;13.20;100.00;100342.94;5440130;26;20018;-72
2024/04/09 09:34:36;;;;;;;2.15;0.40;;;;;;;13.11;100.00;100346.44;5439487;26;19999;-72
2024/04/09 09:37:09;;;;;;;0.30;0.22;;;;;;;13.07;100.00;100346.13;5432076;26;20039;-72
2024/04/09 09:39:39;;;;;;;0.73;0.40;;;;;;;13.10;100.00;100347.75;5431596;26;20114;-72
2024/04/09 09:42:10;;;;;;;0.93;0.20;;;;;;;13.10;100.00;100344.94;5443531;26;20459;-73
2024/04/09 09:44:39;;;;;;;3.47;0.43;;;;;;;13.03;100.00;100348.59;5439715;26;20413;-72
2024/04/09 09:47:13;;;;;;;4.53;0.70;;;;;;;12.96;100.00;100360.56;5407156;26;19999;-72
2024/04/09 09:49:45;;;;;;;0.57;0.30;;;;;;;12.94;100.00;100369.50;5444347;26;20003;-73
2024/04/09 09:52:16;;;;;;;0.70;0.30;;;;;;;13.08;100.00;100378.22;5444438;26;20003;-73
2024/04/09 09:54:45;;;;;;;4.45;0.35;;;;;;;13.09;100.00;100382.50;5430439;26;20008;-74
2024/04/09 09:57:21;;;;;;;0.95;0.28;;;;;;;13.16;100.00;100390.00;5472567;26;20049;-72
2024/04/09 09:59:54;;;;;;;6.93;1.02;;;;;;;13.04;100.00;100397.41;5441463;26;20072;-73
2024/04/09 10:02:29;;;;;;;1.23;0.35;;;;;;;12.88;100.00;100400.41;5435749;26;20003;-73
2024/04/09 10:05:01;;;;;;;0.75;0.20;;;;;;;12.89;100.00;100398.34;5443929;26;20006;-72
2024/04/09 10:07:35;;;;;;;0.00;0.00;;;;;;;12.82;100.00;100386.00;5439950;26;20102;-70
2024/04/09 10:10:05;;;;;;;0.45;0.10;;;;;;;12.78;100.00;100410.72;5446072;26;20010;-72
2024/04/09 10:12:37;;;;;;;2.35;0.63;;;;;;;12.90;100.00;100413.75;5446120;26;20007;-72
2024/04/09 10:15:08;;;;;;;1.85;0.30;;;;;;;12.79;100.00;100419.84;5436358;26;19998;-73
2024/04/09 10:17:48;;;;;;;1.98;0.30;;;;;;;12.67;100.00;100417.56;5434618;26;20007;-73
2024/04/09 10:20:25;;;;;;;0.70;0.20;;;;;;;12.69;100.00;100420.50;5433018;26;19999;-73
2024/04/09 10:22:57;;;;;;;0.73;0.43;;;;;;;12.62;100.00;100440.81;5432101;26;20015;-71
2024/04/09 10:25:25;;;;;;;7.13;0.20;;;;;;;12.47;100.00;100443.78;5439376;26;20454;-72
2024/04/09 10:28:05;;;;;;;1.23;0.10;;;;;;;12.54;100.00;100454.09;5439961;26;20058;-72
2024/04/09 10:30:34;;;;;;;2.20;0.15;;;;;;;12.50;100.00;100450.25;5437870;26;20018;-72
2024/04/09 10:33:07;;;;;;;2.13;0.20;;;;;;;12.45;100.00;100438.03;5435839;26;19998;-72
2024/04/09 10:35:42;;;;;;;1.50;0.40;;;;;;;12.41;100.00;100443.25;5436550;26;20006;-72
2024/04/09 10:38:13;;;;;;;0.95;0.15;;;;;;;12.44;100.00;100444.94;5439778;26;20007;-73
2024/04/09 10:40:42;;;;;;;19.70;0.93;;;;;;;12.51;100.00;100440.56;5435733;26;20015;-73
2024/04/09 10:43:12;;;;;;;3.88;0.20;;;;;;;12.53;100.00;100449.09;5405402;26;20611;-73
2024/04/09 10:45:41;;;;;;;0.52;0.20;;;;;;;12.62;100.00;100462.34;5439045;26;20017;-73
2024/04/09 10:48:29;;;;;;;1.02;0.15;;;;;;;12.60;100.00;100456.63;5437711;26;20681;-73
2024/04/09 10:51:01;;;;;;;1.30;0.25;;;;;;;12.53;100.00;100449.09;5429925;26;20007;-71
2024/04/09 10:53:37;;;;;;;0.63;0.10;;;;;;;12.49;100.00;100468.97;5432763;26;20055;-72
2024/04/09 10:56:07;;;;;;;2.03;0.28;;;;;;;12.43;100.00;100479.59;5438486;26;19999;-71
2024/04/09 10:58:40;;;;;;;0.28;0.10;;;;;;;12.38;100.00;100475.03;5428211;26;20015;-71
2024/04/09 11:01:12;;;;;;;1.20;0.35;;;;;;;12.35;100.00;100471.34;5442532;26;20128;-71
2024/04/09 11:03:45;;;;;;;1.35;0.20;;;;;;;12.24;100.00;100464.22;5440624;26;20347;-71
2024/04/09 11:06:16;;;;;;;0.40;0.30;;;;;;;12.24;100.00;100469.78;5444471;26;20006;-71
2024/04/09 11:08:48;;;;;;;1.45;0.20;;;;;;;12.37;100.00;100462.44;5434104;26;20008;-71
2024/04/09 11:11:16;;;;;;;1.88;0.40;;;;;;;12.50;100.00;100467.66;5440718;26;20541;-71
2024/04/09 11:13:47;;;;;;;0.35;0.13;;;;;;;12.32;100.00;100468.97;5434272;26;20014;-71
2024/04/09 11:16:18;;;;;;;0.57;0.00;;;;;;;12.36;100.00;100463.72;5431984;26;20479;-71
2024/04/09 11:19:00;;;;;;;2.00;0.55;;;;;;;12.17;100.00;100469.84;5424288;26;20007;-72
2024/04/09 11:21:32;;;;;;;0.65;0.10;;;;;;;12.21;100.00;100486.84;5445244;26;20030;-72
2024/04/09 11:24:04;;;;;;;0.13;0.03;;;;;;;12.28;100.00;100480.50;5431171;26;20047;-71
2024/04/09 11:26:32;;;;;;;2.67;0.13;;;;;;;12.30;100.00;100486.22;5430706;26;20015;-73
2024/04/09 11:29:02;;;;;;;1.17;0.20;;;;;;;12.30;100.00;100494.56;5437493;26;20013;-72
2024/04/09 11:31:30;;;;;;;3.97;0.30;;;;;;;12.33;100.00;100501.78;5442434;26;20765;-72
2024/04/09 11:34:00;;;;;;;1.75;0.30;;;;;;;12.35;100.00;100501.94;5442160;26;20010;-70
2024/04/09 11:36:30;;;;;;;2.78;0.22;;;;;;;12.27;100.00;100506.84;5422404;26;20003;-71